createdAt,value
2023-03-29T00:00:08.643Z,31.40
2023-03-29T00:02:39.044Z,23.40
2023-03-29T00:05:06.832Z,22.60
2023-03-29T00:07:54.208Z,27.80
2023-03-29T00:10:24.212Z,29.40
2023-03-29T00:12:52.675Z,22.40
2023-03-29T00:15:21.949Z,22.80
2023-03-29T00:17:48.762Z,20.90
2023-03-29T00:20:16.714Z,22.90
2023-03-29T00:22:44.442Z,21.70
2023-03-29T00:25:12.810Z,20.00
2023-03-29T00:27:40.392Z,20.00
2023-03-29T00:30:10.198Z,25.10
2023-03-29T00:32:37.885Z,23.40
2023-03-29T00:35:06.531Z,18.10
2023-03-29T00:37:33.396Z,22.80
2023-03-29T00:40:00.637Z,19.80
2023-03-29T00:42:27.515Z,24.60
2023-03-29T00:45:04.461Z,23.80
2023-03-29T00:47:46.681Z,25.50
2023-03-29T00:50:22.460Z,25.40
2023-03-29T00:52:56.736Z,27.00
2023-03-29T00:55:27.847Z,22.50
2023-03-29T00:57:57.333Z,28.60
2023-03-29T01:00:31.976Z,26.50
2023-03-29T01:03:01.675Z,23.10
2023-03-29T01:05:34.382Z,25.00
2023-03-29T01:08:06.783Z,25.10
2023-03-29T01:10:41.589Z,24.40
2023-03-29T01:13:13.053Z,24.50
2023-03-29T01:15:44.216Z,24.00
2023-03-29T01:18:11.847Z,25.70
2023-03-29T01:20:56.961Z,21.10
2023-03-29T01:23:52.874Z,21.70
2023-03-29T01:26:36.239Z,23.80
2023-03-29T01:29:12.691Z,23.40
2023-03-29T01:31:53.542Z,28.70
2023-03-29T01:34:36.708Z,27.30
2023-03-29T01:37:17.300Z,27.90
2023-03-29T01:39:44.238Z,23.60
2023-03-29T01:42:31.121Z,25.10
2023-03-29T01:45:11.658Z,25.10
2023-03-29T01:47:48.431Z,28.80
2023-03-29T01:50:24.145Z,23.00
2023-03-29T01:52:59.815Z,26.60
2023-03-29T01:55:35.291Z,25.10
2023-03-29T01:58:05.656Z,30.40
2023-03-29T02:00:34.968Z,26.20
2023-03-29T02:03:07.032Z,32.00
2023-03-29T02:05:35.108Z,30.30
2023-03-29T02:08:05.403Z,26.90
2023-03-29T02:10:34.124Z,23.30
2023-03-29T02:13:01.500Z,24.60
2023-03-29T02:15:28.283Z,29.50
2023-03-29T02:17:57.225Z,23.40
2023-03-29T02:20:27.150Z,24.40
2023-03-29T02:23:09.412Z,25.10
2023-03-29T02:25:37.979Z,25.00
2023-03-29T02:28:07.009Z,27.00
2023-03-29T02:30:44.549Z,30.60
2023-03-29T02:33:18.498Z,28.00
2023-03-29T02:35:53.446Z,27.70
2023-03-29T02:38:25.615Z,28.40
2023-03-29T02:40:53.127Z,32.20
2023-03-29T02:43:22.656Z,29.90
2023-03-29T02:45:52.101Z,29.30
2023-03-29T02:48:23.544Z,35.60
2023-03-29T02:50:54.735Z,27.10
2023-03-29T02:53:28.255Z,24.80
2023-03-29T02:55:55.610Z,28.00
2023-03-29T02:58:26.677Z,29.40
2023-03-29T03:00:53.959Z,23.40
2023-03-29T03:03:20.919Z,26.80
2023-03-29T03:05:49.438Z,32.10
2023-03-29T03:08:16.436Z,32.40
2023-03-29T03:10:43.286Z,26.10
2023-03-29T03:13:11.403Z,29.50
2023-03-29T03:15:41.198Z,37.80
2023-03-29T03:18:09.593Z,26.10
2023-03-29T03:20:36.553Z,37.50
2023-03-29T03:23:03.674Z,34.20
2023-03-29T03:25:31.795Z,33.50
2023-03-29T03:27:59.162Z,28.10
2023-03-29T03:30:26.540Z,38.40
2023-03-29T03:32:56.703Z,37.10
2023-03-29T03:35:39.308Z,37.10
2023-03-29T03:38:07.555Z,36.20
2023-03-29T03:40:34.917Z,34.80
2023-03-29T03:43:01.762Z,36.40
2023-03-29T03:45:29.089Z,41.10
2023-03-29T03:48:02.097Z,44.00
2023-03-29T03:50:55.072Z,40.80
2023-03-29T03:53:23.752Z,38.80
2023-03-29T03:56:09.259Z,37.50
2023-03-29T03:58:45.816Z,35.50
2023-03-29T04:01:13.389Z,37.30
2023-03-29T04:03:44.639Z,38.90
2023-03-29T04:06:14.292Z,32.40
2023-03-29T04:08:56.836Z,40.40
2023-03-29T04:11:33.765Z,31.60
2023-03-29T04:14:00.653Z,42.70
2023-03-29T04:16:39.781Z,41.80
2023-03-29T04:19:23.126Z,44.90
2023-03-29T04:21:51.394Z,49.00
2023-03-29T04:24:18.666Z,44.10
2023-03-29T04:26:57.185Z,40.30
2023-03-29T04:29:24.713Z,35.60
2023-03-29T04:31:59.195Z,43.00
2023-03-29T04:34:41.077Z,43.50
2023-03-29T04:37:10.613Z,39.60
2023-03-29T04:39:38.053Z,46.30
2023-03-29T04:42:05.985Z,38.10
2023-03-29T04:44:34.200Z,37.90
2023-03-29T04:47:02.989Z,42.70
2023-03-29T04:49:30.047Z,46.30
2023-03-29T04:52:00.947Z,46.30
2023-03-29T04:54:29.421Z,47.00
2023-03-29T04:57:05.752Z,50.30
2023-03-29T04:59:38.742Z,44.10
2023-03-29T05:02:14.691Z,37.40
2023-03-29T05:04:43.156Z,36.60
2023-03-29T05:07:15.384Z,36.70
2023-03-29T05:09:42.750Z,35.70
2023-03-29T05:12:10.325Z,34.60
2023-03-29T05:14:48.836Z,37.70
2023-03-29T05:17:16.049Z,40.00
2023-03-29T05:19:43.553Z,40.40
2023-03-29T05:22:10.561Z,45.00
2023-03-29T05:24:37.828Z,48.10
2023-03-29T05:27:11.842Z,62.20
2023-03-29T05:29:39.205Z,59.10
2023-03-29T05:32:19.790Z,62.70
2023-03-29T05:34:46.794Z,33.00
2023-03-29T05:37:13.639Z,19.40
2023-03-29T05:39:49.852Z,19.60
2023-03-29T05:42:22.552Z,35.90
2023-03-29T05:44:54.679Z,23.10
2023-03-29T05:47:21.662Z,21.40
2023-03-29T05:49:48.421Z,28.30
2023-03-29T05:52:20.852Z,25.30
2023-03-29T05:54:47.739Z,23.60
2023-03-29T05:57:15.266Z,23.40
2023-03-29T05:59:42.471Z,27.10
2023-03-29T06:02:11.748Z,29.60
2023-03-29T06:04:43.487Z,31.00
2023-03-29T06:07:25.734Z,29.30
2023-03-29T06:10:09.715Z,32.30
2023-03-29T06:12:38.151Z,35.70
2023-03-29T06:15:06.558Z,30.40
2023-03-29T06:17:39.674Z,27.40
2023-03-29T06:20:11.916Z,25.80
2023-03-29T06:22:41.992Z,25.70
2023-03-29T06:25:11.222Z,26.60
2023-03-29T06:27:38.706Z,27.50
2023-03-29T06:30:06.311Z,25.90
2023-03-29T06:32:35.113Z,26.60
2023-03-29T06:35:09.964Z,28.50
2023-03-29T06:37:49.498Z,20.60
2023-03-29T06:40:23.059Z,21.40
2023-03-29T06:42:51.070Z,22.80
2023-03-29T06:45:36.466Z,23.90
2023-03-29T06:48:08.007Z,26.20
2023-03-29T06:50:36.012Z,27.40
2023-03-29T06:53:09.511Z,25.90
2023-03-29T06:55:36.447Z,27.10
2023-03-29T06:58:20.681Z,23.00
2023-03-29T07:00:47.667Z,21.30
2023-03-29T07:03:23.602Z,24.20
2023-03-29T07:05:53.072Z,26.50
2023-03-29T07:08:21.428Z,25.20
2023-03-29T07:10:54.277Z,23.80
2023-03-29T07:13:36.685Z,24.20
2023-03-29T07:16:05.093Z,26.70
2023-03-29T07:18:46.115Z,24.60
2023-03-29T07:21:21.246Z,23.40
2023-03-29T07:23:48.037Z,23.00
2023-03-29T07:26:28.616Z,24.40
2023-03-29T07:28:57.195Z,16.30
2023-03-29T07:31:24.227Z,17.40
2023-03-29T07:33:56.200Z,14.90
2023-03-29T07:36:25.402Z,21.60
2023-03-29T07:38:55.149Z,16.20
2023-03-29T07:41:23.655Z,16.50
2023-03-29T07:43:55.904Z,16.10
2023-03-29T07:46:25.261Z,14.40
2023-03-29T07:48:52.306Z,16.80
2023-03-29T07:51:20.156Z,16.20
2023-03-29T07:53:49.897Z,16.00
2023-03-29T07:56:32.428Z,15.60
2023-03-29T07:59:11.938Z,15.80
2023-03-29T08:01:41.214Z,20.50
2023-03-29T08:07:06.488Z,16.70
2023-03-29T08:09:50.432Z,16.60
2023-03-29T08:12:17.636Z,19.40
2023-03-29T08:14:44.542Z,11.70
2023-03-29T08:17:24.793Z,10.90
2023-03-29T08:19:52.482Z,11.60
2023-03-29T08:22:23.143Z,9.80
2023-03-29T08:25:07.266Z,12.10
2023-03-29T08:27:39.909Z,12.90
2023-03-29T08:30:09.698Z,9.30
2023-03-29T08:32:38.486Z,11.70
2023-03-29T08:35:08.811Z,10.70
2023-03-29T08:37:40.795Z,10.40
2023-03-29T08:40:08.651Z,9.00
2023-03-29T08:43:11.140Z,8.40
2023-03-29T08:46:09.955Z,9.40
2023-03-29T08:48:44.223Z,7.80
2023-03-29T08:51:19.572Z,7.90
2023-03-29T08:53:52.748Z,6.70
2023-03-29T08:56:34.034Z,7.70
2023-03-29T08:59:01.498Z,7.20
2023-03-29T09:01:35.545Z,7.90
2023-03-29T09:04:09.175Z,5.90
2023-03-29T09:06:49.749Z,3.80
2023-03-29T09:09:22.867Z,5.80
2023-03-29T09:12:01.743Z,3.30
2023-03-29T09:14:46.400Z,4.60
2023-03-29T09:17:20.362Z,4.00
2023-03-29T09:19:48.397Z,4.80
2023-03-29T09:22:17.616Z,5.60
2023-03-29T09:25:15.394Z,6.50
2023-03-29T09:28:14.468Z,4.10
2023-03-29T09:31:03.976Z,4.70
2023-03-29T09:33:49.818Z,4.40
2023-03-29T09:36:42.157Z,6.50
2023-03-29T09:39:13.347Z,4.20
2023-03-29T09:41:48.154Z,4.70
2023-03-29T09:44:30.257Z,3.90
2023-03-29T09:47:19.367Z,3.50
2023-03-29T09:49:49.628Z,3.30
2023-03-29T09:52:18.248Z,4.00
2023-03-29T09:54:52.532Z,5.20
2023-03-29T09:57:35.348Z,4.10
2023-03-29T10:00:06.083Z,4.60
2023-03-29T10:02:41.010Z,6.40
2023-03-29T10:05:16.491Z,4.90
2023-03-29T10:07:49.019Z,6.10
2023-03-29T10:10:22.196Z,8.70
2023-03-29T10:12:51.876Z,4.40
2023-03-29T10:15:29.257Z,4.30
2023-03-29T10:18:04.477Z,4.20
2023-03-29T10:20:36.519Z,3.70
2023-03-29T10:23:06.931Z,3.90
2023-03-29T10:25:42.551Z,4.10
2023-03-29T10:28:21.246Z,5.80
2023-03-29T10:30:54.423Z,5.80
2023-03-29T10:33:24.541Z,8.70
2023-03-29T10:35:52.491Z,4.30
2023-03-29T10:38:23.087Z,3.70
2023-03-29T10:40:53.278Z,5.70
2023-03-29T10:43:20.256Z,4.70
2023-03-29T10:45:50.010Z,3.50
2023-03-29T10:48:18.170Z,6.20
2023-03-29T10:50:50.541Z,6.90
2023-03-29T10:53:33.709Z,5.30
2023-03-29T10:56:23.212Z,3.80
2023-03-29T10:58:58.689Z,4.00
2023-03-29T11:01:44.946Z,4.20
2023-03-29T11:04:20.967Z,3.50
2023-03-29T11:07:03.833Z,5.70
2023-03-29T11:09:50.016Z,6.20
2023-03-29T11:12:28.069Z,8.00
2023-03-29T11:15:09.720Z,3.70
2023-03-29T11:18:01.823Z,5.00
2023-03-29T11:20:44.181Z,5.10
2023-03-29T11:23:42.962Z,3.90
2023-03-29T11:26:36.857Z,5.10
2023-03-29T11:29:11.043Z,4.40
2023-03-29T11:34:08.058Z,3.10
2023-03-29T11:36:41.470Z,5.80
2023-03-29T11:39:09.589Z,3.50
2023-03-29T11:41:39.908Z,6.00
2023-03-29T11:44:11.581Z,4.50
2023-03-29T11:46:50.345Z,3.80
2023-03-29T11:49:32.337Z,5.50
2023-03-29T11:52:10.558Z,3.60
2023-03-29T11:54:40.542Z,8.40
2023-03-29T11:57:23.754Z,3.30
2023-03-29T12:00:12.452Z,6.70
2023-03-29T12:02:55.527Z,3.80
2023-03-29T12:05:28.260Z,3.50
2023-03-29T12:08:03.735Z,5.90
2023-03-29T12:10:35.547Z,2.70
2023-03-29T12:13:08.241Z,4.50
2023-03-29T12:15:49.462Z,4.80
2023-03-29T12:18:36.903Z,2.80
2023-03-29T12:21:10.760Z,4.40
2023-03-29T12:23:38.613Z,3.70
2023-03-29T12:26:22.061Z,6.80
2023-03-29T12:29:20.129Z,2.20
2023-03-29T12:32:02.735Z,3.00
2023-03-29T12:34:53.449Z,6.00
2023-03-29T12:37:54.613Z,6.10
2023-03-29T12:40:46.066Z,5.20
2023-03-29T12:43:33.189Z,3.80
2023-03-29T12:46:21.026Z,4.30
2023-03-29T12:48:53.242Z,4.00
2023-03-29T12:51:24.081Z,5.50
2023-03-29T12:53:53.708Z,5.00
2023-03-29T12:56:34.927Z,4.20
2023-03-29T12:59:16.556Z,4.00
2023-03-29T13:01:59.023Z,4.80
2023-03-29T13:04:38.801Z,4.80
2023-03-29T13:07:07.249Z,5.00
2023-03-29T13:09:48.188Z,5.10
2023-03-29T13:12:22.467Z,5.90
2023-03-29T13:14:54.840Z,3.30
2023-03-29T13:17:37.342Z,5.00
2023-03-29T13:20:34.903Z,4.70
2023-03-29T13:23:18.211Z,4.60
2023-03-29T13:25:47.056Z,4.60
2023-03-29T13:28:35.784Z,4.50
2023-03-29T13:31:03.527Z,3.90
2023-03-29T13:33:52.756Z,6.00
2023-03-29T13:36:34.609Z,4.90
2023-03-29T13:39:05.574Z,6.90
2023-03-29T13:41:47.124Z,3.40
2023-03-29T13:44:23.803Z,5.10
2023-03-29T13:47:03.622Z,3.10
2023-03-29T13:49:34.020Z,5.60
2023-03-29T13:52:07.261Z,6.30
2023-03-29T13:54:42.095Z,4.40
2023-03-29T13:57:12.841Z,5.30
2023-03-29T13:59:55.115Z,5.20
2023-03-29T14:02:32.545Z,5.90
2023-03-29T14:05:02.319Z,5.00
2023-03-29T14:07:32.721Z,7.00
2023-03-29T14:10:01.290Z,5.20
2023-03-29T14:12:37.762Z,5.70
2023-03-29T14:15:07.028Z,6.50
2023-03-29T14:17:36.455Z,5.80
2023-03-29T14:20:09.160Z,7.00
2023-03-29T14:22:36.076Z,4.60
2023-03-29T14:25:12.001Z,6.60
2023-03-29T14:27:38.778Z,4.90
2023-03-29T14:30:23.254Z,4.70
2023-03-29T14:32:51.647Z,5.80
2023-03-29T14:35:19.342Z,6.10
2023-03-29T14:37:46.576Z,4.90
2023-03-29T14:40:20.072Z,6.80
2023-03-29T14:42:48.790Z,4.70
2023-03-29T14:45:18.307Z,8.90
2023-03-29T14:47:47.400Z,5.40
2023-03-29T14:50:31.032Z,7.90
2023-03-29T14:53:00.828Z,5.50
2023-03-29T14:55:28.063Z,7.80
2023-03-29T14:57:55.683Z,3.00
2023-03-29T15:00:30.223Z,3.60
2023-03-29T15:03:01.494Z,4.80
2023-03-29T15:05:34.016Z,5.40
2023-03-29T15:08:03.169Z,3.70
2023-03-29T15:10:38.825Z,7.40
2023-03-29T15:13:08.091Z,6.40
2023-03-29T15:15:38.559Z,3.70
2023-03-29T15:18:07.887Z,5.10
2023-03-29T15:20:38.354Z,3.10
2023-03-29T15:23:21.178Z,5.40
2023-03-29T15:25:53.966Z,5.00
2023-03-29T15:28:26.485Z,5.70
2023-03-29T15:31:07.333Z,5.50
2023-03-29T15:33:38.025Z,56.40
2023-03-29T15:36:07.308Z,13.20
2023-03-29T15:38:43.099Z,11.30
2023-03-29T15:41:13.734Z,9.20
2023-03-29T15:43:42.073Z,412.30
2023-03-29T15:46:12.320Z,50.80
2023-03-29T15:48:39.505Z,12.90
2023-03-29T15:51:07.157Z,113.70
2023-03-29T15:53:35.595Z,12.90
2023-03-29T15:56:07.521Z,19.50
2023-03-29T15:58:35.675Z,80.30
2023-03-29T16:01:34.768Z,332.80
2023-03-29T16:04:04.747Z,67.10
2023-03-29T16:06:32.354Z,127.90
2023-03-29T16:08:59.544Z,120.40
2023-03-29T16:11:28.467Z,175.00
2023-03-29T16:13:56.774Z,32.70
2023-03-29T16:16:24.248Z,268.40
2023-03-29T16:18:51.243Z,301.50
2023-03-29T16:21:19.997Z,97.80
2023-03-29T16:23:47.244Z,32.20
2023-03-29T16:26:16.376Z,24.50
2023-03-29T16:28:43.869Z,35.50
2023-03-29T16:31:13.019Z,13.60
2023-03-29T16:33:41.143Z,6.20
2023-03-29T16:36:08.978Z,7.70
2023-03-29T16:38:36.236Z,200.50
2023-03-29T16:41:03.036Z,592.80
2023-03-29T16:43:29.937Z,615.20
2023-03-29T16:45:57.235Z,388.60
2023-03-29T16:48:24.444Z,405.70
2023-03-29T16:50:51.344Z,200.00
2023-03-29T16:53:18.825Z,37.80
2023-03-29T16:55:46.471Z,213.10
2023-03-29T16:58:13.417Z,423.40
2023-03-29T17:00:40.966Z,94.70
2023-03-29T17:03:08.180Z,226.00
2023-03-29T17:05:41.383Z,334.50
2023-03-29T17:08:10.245Z,243.00
2023-03-29T17:10:40.873Z,138.70
2023-03-29T17:13:24.089Z,58.20
2023-03-29T17:15:52.446Z,29.40
2023-03-29T17:18:21.164Z,67.20
2023-03-29T17:20:50.703Z,103.40
2023-03-29T17:23:17.944Z,22.70
2023-03-29T17:25:44.875Z,10.80
2023-03-29T17:28:11.713Z,17.60
2023-03-29T17:30:39.003Z,16.10
2023-03-29T17:33:08.218Z,35.30
2023-03-29T17:35:35.270Z,166.70
2023-03-29T17:38:02.971Z,267.20
2023-03-29T17:40:29.807Z,100.10
2023-03-29T17:42:56.530Z,49.80
2023-03-29T17:45:23.367Z,32.20
2023-03-29T17:47:50.393Z,26.50
2023-03-29T17:50:17.606Z,28.50
2023-03-29T17:52:59.718Z,125.80
2023-03-29T17:55:27.467Z,216.90
2023-03-29T17:57:54.471Z,208.50
2023-03-29T18:00:21.595Z,114.30
2023-03-29T18:02:48.505Z,83.80
2023-03-29T18:05:15.553Z,41.70
2023-03-29T18:07:42.417Z,27.70
2023-03-29T18:10:09.648Z,227.10
2023-03-29T18:12:36.712Z,78.90
2023-03-29T18:15:03.775Z,40.40
2023-03-29T18:17:31.372Z,45.30
2023-03-29T18:20:13.662Z,84.80
2023-03-29T18:22:56.180Z,34.20
2023-03-29T18:25:24.144Z,39.50
2023-03-29T18:27:51.395Z,28.80
2023-03-29T18:30:18.522Z,26.70
2023-03-29T18:32:45.482Z,25.70
2023-03-29T18:35:12.292Z,27.50
2023-03-29T18:37:39.034Z,26.40
2023-03-29T18:40:08.403Z,22.30
2023-03-29T18:42:35.154Z,26.00
2023-03-29T18:45:02.667Z,28.80
2023-03-29T18:47:29.554Z,26.20
2023-03-29T18:49:56.831Z,22.10
2023-03-29T18:52:23.676Z,27.60
2023-03-29T18:54:50.528Z,25.10
2023-03-29T18:57:17.725Z,28.40
2023-03-29T18:59:44.475Z,28.30
2023-03-29T19:02:11.302Z,108.60
2023-03-29T19:04:38.045Z,52.60
2023-03-29T19:07:04.844Z,33.10
2023-03-29T19:09:31.744Z,35.60
2023-03-29T19:11:58.619Z,34.10
2023-03-29T19:14:25.511Z,61.20
2023-03-29T19:16:52.962Z,52.20
2023-03-29T19:19:22.556Z,28.80
2023-03-29T19:21:49.638Z,25.90
2023-03-29T19:24:16.978Z,32.90
2023-03-29T19:26:44.792Z,34.80
2023-03-29T19:29:11.949Z,35.60
2023-03-29T19:31:39.019Z,40.00
2023-03-29T19:34:07.050Z,43.00
2023-03-29T19:36:34.056Z,59.40
2023-03-29T19:39:01.384Z,87.30
2023-03-29T19:41:28.505Z,82.80
2023-03-29T19:43:55.501Z,47.80
2023-03-29T19:46:22.968Z,39.20
2023-03-29T19:48:51.794Z,36.90
2023-03-29T19:51:19.747Z,39.30
2023-03-29T19:53:47.326Z,39.80
2023-03-29T19:56:15.856Z,39.90
2023-03-29T19:58:42.663Z,46.80
2023-03-29T20:01:09.914Z,82.80
2023-03-29T20:03:36.808Z,71.60
2023-03-29T20:06:04.639Z,58.40
2023-03-29T20:08:31.498Z,68.90
2023-03-29T20:10:59.822Z,139.00
2023-03-29T20:13:37.574Z,183.40
2023-03-29T20:16:07.602Z,136.00
2023-03-29T20:18:34.599Z,123.30
2023-03-29T20:21:02.223Z,88.30
2023-03-29T20:23:30.003Z,75.00
2023-03-29T20:25:57.159Z,81.10
2023-03-29T20:28:24.724Z,92.20
2023-03-29T20:30:53.047Z,60.40
2023-03-29T20:33:21.289Z,111.70
2023-03-29T20:35:49.457Z,71.00
2023-03-29T20:38:17.315Z,51.40
2023-03-29T20:40:44.910Z,64.30
2023-03-29T20:43:13.556Z,85.70
2023-03-29T20:45:52.745Z,55.70
2023-03-29T20:48:23.304Z,62.80
2023-03-29T20:50:51.462Z,83.60
2023-03-29T20:53:20.516Z,158.00
2023-03-29T20:55:48.136Z,166.50
2023-03-29T20:58:15.935Z,113.50
2023-03-29T21:00:43.709Z,447.50
2023-03-29T21:03:11.239Z,209.10
2023-03-29T21:05:39.084Z,152.50
2023-03-29T21:08:06.229Z,366.40
2023-03-29T21:10:33.440Z,432.00
2023-03-29T21:13:02.713Z,369.70
2023-03-29T21:15:30.839Z,177.30
2023-03-29T21:17:58.355Z,262.80
2023-03-29T21:20:25.861Z,462.00
2023-03-29T21:22:52.621Z,553.30
2023-03-29T21:25:19.827Z,176.10
2023-03-29T21:27:46.574Z,437.00
2023-03-29T21:30:13.741Z,255.20
2023-03-29T21:32:41.149Z,154.20
2023-03-29T21:35:08.847Z,70.50
2023-03-29T21:37:36.252Z,57.20
2023-03-29T21:40:08.313Z,69.70
2023-03-29T21:42:35.418Z,58.50
2023-03-29T21:45:03.100Z,46.00
2023-03-29T21:47:30.208Z,45.50
2023-03-29T21:49:57.075Z,65.40
2023-03-29T21:52:23.881Z,47.70
2023-03-29T21:54:50.833Z,37.10
2023-03-29T21:57:17.786Z,68.30
2023-03-29T21:59:44.564Z,59.00
2023-03-29T22:02:11.750Z,48.80
2023-03-29T22:04:38.817Z,46.50
2023-03-29T22:07:06.721Z,39.10
2023-03-29T22:09:35.721Z,37.60
2023-03-29T22:12:03.959Z,37.70
2023-03-29T22:14:35.374Z,43.90
2023-03-29T22:17:06.176Z,45.40
2023-03-29T22:19:39.370Z,42.40
2023-03-29T22:22:07.380Z,41.30
2023-03-29T22:24:34.204Z,43.00
2023-03-29T22:27:00.953Z,60.60
2023-03-29T22:29:27.713Z,52.70
2023-03-29T22:31:54.579Z,49.00
2023-03-29T22:34:21.371Z,41.50
2023-03-29T22:36:48.266Z,55.90
2023-03-29T22:39:15.167Z,51.80
2023-03-29T22:41:42.295Z,49.60
2023-03-29T22:44:09.385Z,89.60
2023-03-29T22:46:36.744Z,49.60
2023-03-29T22:49:03.936Z,41.00
2023-03-29T22:51:30.751Z,43.10
2023-03-29T22:53:57.658Z,73.00
2023-03-29T22:56:24.895Z,46.50
2023-03-29T22:58:51.900Z,32.90
2023-03-29T23:01:18.745Z,50.30
2023-03-29T23:03:45.530Z,34.30
2023-03-29T23:06:12.731Z,52.30
2023-03-29T23:08:39.643Z,120.50
2023-03-29T23:11:07.526Z,56.00
2023-03-29T23:13:35.370Z,70.50
2023-03-29T23:16:03.926Z,158.00
2023-03-29T23:18:34.931Z,162.40
2023-03-29T23:21:02.728Z,84.40
2023-03-29T23:23:30.030Z,55.80
2023-03-29T23:25:57.310Z,48.70
2023-03-29T23:28:27.601Z,66.70
2023-03-29T23:30:55.555Z,25.10
2023-03-29T23:33:23.371Z,21.40
2023-03-29T23:35:50.494Z,31.60
2023-03-29T23:38:17.360Z,27.70
2023-03-29T23:40:44.190Z,41.40
2023-03-29T23:43:11.270Z,30.90
2023-03-29T23:45:38.073Z,41.00
2023-03-29T23:48:05.142Z,28.60
2023-03-29T23:50:31.963Z,26.60
2023-03-29T23:52:58.744Z,29.70
2023-03-29T23:55:25.471Z,39.80
2023-03-29T23:57:52.326Z,27.80
